sensor_id;sensor_type;location;lat;lon;timestamp;P1;durP1;ratioP1;P2;durP2;ratioP2
75586;SDS011;64164;50.156;14.570;2022-12-04T08:45:15;41.38;;;16.48;;
75586;SDS011;64164;50.156;14.570;2022-12-04T08:47:40;35.80;;;15.60;;
75586;SDS011;64164;50.156;14.570;2022-12-04T08:50:06;33.40;;;14.53;;
75586;SDS011;64164;50.156;14.570;2022-12-04T08:52:31;34.37;;;14.43;;
75586;SDS011;64164;50.156;14.570;2022-12-04T08:54:56;36.40;;;14.83;;
75586;SDS011;64164;50.156;14.570;2022-12-04T08:57:21;33.30;;;14.90;;
75586;SDS011;64164;50.156;14.570;2022-12-04T08:59:47;37.50;;;14.27;;
75586;SDS011;64164;50.156;14.570;2022-12-04T09:02:12;37.90;;;15.27;;
75586;SDS011;64164;50.156;14.570;2022-12-04T09:04:37;36.90;;;15.05;;
75586;SDS011;64164;50.156;14.570;2022-12-04T09:07:03;38.23;;;14.23;;
75586;SDS011;64164;50.156;14.570;2022-12-04T09:09:28;29.20;;;12.63;;
75586;SDS011;64164;50.156;14.570;2022-12-04T09:11:53;33.10;;;14.30;;
75586;SDS011;64164;50.156;14.570;2022-12-04T09:14:18;33.67;;;13.90;;
75586;SDS011;64164;50.156;14.570;2022-12-04T09:16:49;36.80;;;13.23;;
75586;SDS011;64164;50.156;14.570;2022-12-04T09:19:14;32.23;;;13.73;;
75586;SDS011;64164;50.156;14.570;2022-12-04T09:21:39;29.63;;;13.60;;
75586;SDS011;64164;50.156;14.570;2022-12-04T09:24:05;32.50;;;14.23;;
75586;SDS011;64164;50.156;14.570;2022-12-04T09:26:30;29.47;;;12.90;;
75586;SDS011;64164;50.156;14.570;2022-12-04T09:28:57;30.90;;;14.93;;
75586;SDS011;64164;50.156;14.570;2022-12-04T09:31:23;31.48;;;14.60;;
75586;SDS011;64164;50.156;14.570;2022-12-04T09:33:48;26.00;;;11.43;;
75586;SDS011;64164;50.156;14.570;2022-12-04T09:36:15;31.00;;;12.83;;
75586;SDS011;64164;50.156;14.570;2022-12-04T09:38:41;31.40;;;13.77;;
75586;SDS011;64164;50.156;14.570;2022-12-04T09:43:40;32.63;;;13.53;;
75586;SDS011;64164;50.156;14.570;2022-12-04T09:46:11;32.38;;;13.60;;
75586;SDS011;64164;50.156;14.570;2022-12-04T09:48:38;32.78;;;14.88;;
75586;SDS011;64164;50.156;14.570;2022-12-04T09:51:05;30.15;;;13.75;;
75586;SDS011;64164;50.156;14.570;2022-12-04T09:53:36;31.83;;;13.80;;
75586;SDS011;64164;50.156;14.570;2022-12-04T09:56:06;28.38;;;13.77;;
75586;SDS011;64164;50.156;14.570;2022-12-04T10:00:59;32.92;;;13.23;;
75586;SDS011;64164;50.156;14.570;2022-12-04T10:03:25;36.15;;;15.23;;
75586;SDS011;64164;50.156;14.570;2022-12-04T10:08:22;29.90;;;12.75;;
75586;SDS011;64164;50.156;14.570;2022-12-04T10:16:08;32.63;;;13.85;;
75586;SDS011;64164;50.156;14.570;2022-12-04T10:18:50;32.78;;;13.30;;
75586;SDS011;64164;50.156;14.570;2022-12-04T10:27:09;31.08;;;12.45;;
75586;SDS011;64164;50.156;14.570;2022-12-04T10:29:36;27.38;;;12.93;;
75586;SDS011;64164;50.156;14.570;2022-12-04T10:32:16;34.80;;;14.82;;
75586;SDS011;64164;50.156;14.570;2022-12-04T10:34:43;35.05;;;13.70;;
75586;SDS011;64164;50.156;14.570;2022-12-04T10:37:11;29.40;;;14.10;;
75586;SDS011;64164;50.156;14.570;2022-12-04T10:39:39;32.92;;;14.48;;
75586;SDS011;64164;50.156;14.570;2022-12-04T10:44:43;29.95;;;11.07;;
75586;SDS011;64164;50.156;14.570;2022-12-04T10:47:09;35.27;;;14.37;;
75586;SDS011;64164;50.156;14.570;2022-12-04T10:49:35;37.63;;;16.00;;
75586;SDS011;64164;50.156;14.570;2022-12-04T10:52:01;30.03;;;13.87;;
75586;SDS011;64164;50.156;14.570;2022-12-04T10:57:12;26.95;;;12.20;;
75586;SDS011;64164;50.156;14.570;2022-12-04T10:59:47;25.85;;;12.30;;
75586;SDS011;64164;50.156;14.570;2022-12-04T11:02:23;31.48;;;13.55;;
75586;SDS011;64164;50.156;14.570;2022-12-04T11:04:56;24.40;;;12.73;;
75586;SDS011;64164;50.156;14.570;2022-12-04T11:07:43;30.30;;;14.02;;
75586;SDS011;64164;50.156;14.570;2022-12-04T11:10:21;30.00;;;13.43;;
75586;SDS011;64164;50.156;14.570;2022-12-04T11:12:56;31.05;;;13.05;;
75586;SDS011;64164;50.156;14.570;2022-12-04T11:15:23;30.88;;;13.85;;
75586;SDS011;64164;50.156;14.570;2022-12-04T11:17:48;31.95;;;13.93;;
75586;SDS011;64164;50.156;14.570;2022-12-04T11:20:18;31.73;;;13.90;;
75586;SDS011;64164;50.156;14.570;2022-12-04T11:22:48;32.95;;;13.00;;
75586;SDS011;64164;50.156;14.570;2022-12-04T11:25:14;31.05;;;13.77;;
75586;SDS011;64164;50.156;14.570;2022-12-04T11:27:39;27.50;;;13.93;;
75586;SDS011;64164;50.156;14.570;2022-12-04T11:30:09;29.47;;;13.33;;
75586;SDS011;64164;50.156;14.570;2022-12-04T11:32:34;31.27;;;12.90;;
75586;SDS011;64164;50.156;14.570;2022-12-04T11:35:04;26.13;;;12.38;;
75586;SDS011;64164;50.156;14.570;2022-12-04T11:37:31;30.58;;;14.20;;
75586;SDS011;64164;50.156;14.570;2022-12-04T11:39:56;27.50;;;11.85;;
75586;SDS011;64164;50.156;14.570;2022-12-04T11:42:26;27.30;;;12.40;;
75586;SDS011;64164;50.156;14.570;2022-12-04T11:44:52;26.25;;;12.35;;
75586;SDS011;64164;50.156;14.570;2022-12-04T11:47:18;28.83;;;13.77;;
75586;SDS011;64164;50.156;14.570;2022-12-04T11:49:44;27.83;;;12.25;;
75586;SDS011;64164;50.156;14.570;2022-12-04T11:52:21;28.75;;;13.80;;
75586;SDS011;64164;50.156;14.570;2022-12-04T11:55:00;28.67;;;13.05;;
75586;SDS011;64164;50.156;14.570;2022-12-04T12:02:43;27.90;;;13.88;;
75586;SDS011;64164;50.156;14.570;2022-12-04T12:05:17;23.90;;;11.93;;
75586;SDS011;64164;50.156;14.570;2022-12-04T12:10:39;30.40;;;12.60;;
75586;SDS011;64164;50.156;14.570;2022-12-04T12:13:11;27.13;;;12.13;;
75586;SDS011;64164;50.156;14.570;2022-12-04T12:15:50;25.25;;;11.82;;
75586;SDS011;64164;50.156;14.570;2022-12-04T12:26:10;28.00;;;12.27;;
75586;SDS011;64164;50.156;14.570;2022-12-04T12:33:47;25.63;;;11.02;;
75586;SDS011;64164;50.156;14.570;2022-12-04T12:36:13;29.30;;;12.75;;
75586;SDS011;64164;50.156;14.570;2022-12-04T12:41:12;22.30;;;10.70;;
75586;SDS011;64164;50.156;14.570;2022-12-04T12:43:38;18.50;;;9.27;;
75586;SDS011;64164;50.156;14.570;2022-12-04T12:46:09;26.10;;;12.48;;
75586;SDS011;64164;50.156;14.570;2022-12-04T12:51:26;22.63;;;10.77;;
75586;SDS011;64164;50.156;14.570;2022-12-04T12:53:54;27.33;;;12.57;;
75586;SDS011;64164;50.156;14.570;2022-12-04T12:56:29;33.22;;;13.35;;
75586;SDS011;64164;50.156;14.570;2022-12-04T13:01:21;25.85;;;11.73;;
75586;SDS011;64164;50.156;14.570;2022-12-04T13:06:43;29.55;;;13.00;;
75586;SDS011;64164;50.156;14.570;2022-12-04T13:11:41;25.77;;;11.57;;
75586;SDS011;64164;50.156;14.570;2022-12-04T13:14:09;25.92;;;12.00;;
75586;SDS011;64164;50.156;14.570;2022-12-04T13:16:37;26.92;;;12.00;;
75586;SDS011;64164;50.156;14.570;2022-12-04T13:19:18;25.50;;;10.80;;
75586;SDS011;64164;50.156;14.570;2022-12-04T13:21:59;28.50;;;13.07;;
75586;SDS011;64164;50.156;14.570;2022-12-04T13:26:56;24.70;;;11.00;;
75586;SDS011;64164;50.156;14.570;2022-12-04T13:34:46;27.65;;;11.60;;
75586;SDS011;64164;50.156;14.570;2022-12-04T13:42:33;22.75;;;10.27;;
75586;SDS011;64164;50.156;14.570;2022-12-04T13:44:59;22.60;;;9.98;;
75586;SDS011;64164;50.156;14.570;2022-12-04T13:47:30;31.48;;;12.48;;
75586;SDS011;64164;50.156;14.570;2022-12-04T13:52:38;25.50;;;10.55;;
75586;SDS011;64164;50.156;14.570;2022-12-04T13:55:21;22.80;;;11.90;;
75586;SDS011;64164;50.156;14.570;2022-12-04T13:58:00;24.58;;;10.80;;
75586;SDS011;64164;50.156;14.570;2022-12-04T14:00:27;22.08;;;9.77;;
75586;SDS011;64164;50.156;14.570;2022-12-04T14:05:23;20.70;;;10.15;;
75586;SDS011;64164;50.156;14.570;2022-12-04T14:07:58;23.15;;;9.57;;
75586;SDS011;64164;50.156;14.570;2022-12-04T14:10:25;26.05;;;11.07;;
75586;SDS011;64164;50.156;14.570;2022-12-04T14:12:57;24.38;;;11.30;;
75586;SDS011;64164;50.156;14.570;2022-12-04T14:15:23;28.88;;;12.57;;
75586;SDS011;64164;50.156;14.570;2022-12-04T14:17:59;28.17;;;10.60;;
75586;SDS011;64164;50.156;14.570;2022-12-04T14:20:29;23.67;;;11.50;;
75586;SDS011;64164;50.156;14.570;2022-12-04T14:23:05;24.17;;;11.85;;
75586;SDS011;64164;50.156;14.570;2022-12-04T14:25:37;24.67;;;10.55;;
75586;SDS011;64164;50.156;14.570;2022-12-04T14:28:13;24.30;;;11.30;;
75586;SDS011;64164;50.156;14.570;2022-12-04T14:30:55;29.25;;;11.70;;
75586;SDS011;64164;50.156;14.570;2022-12-04T14:33:22;24.05;;;11.57;;
75586;SDS011;64164;50.156;14.570;2022-12-04T14:35:49;26.52;;;12.13;;
75586;SDS011;64164;50.156;14.570;2022-12-04T14:38:15;28.02;;;12.65;;
75586;SDS011;64164;50.156;14.570;2022-12-04T14:40:43;26.15;;;11.63;;
75586;SDS011;64164;50.156;14.570;2022-12-04T14:43:15;24.75;;;10.77;;
75586;SDS011;64164;50.156;14.570;2022-12-04T14:45:45;27.52;;;12.23;;
75586;SDS011;64164;50.156;14.570;2022-12-04T14:50:46;22.67;;;10.53;;
75586;SDS011;64164;50.156;14.570;2022-12-04T14:58:31;24.23;;;10.73;;
75586;SDS011;64164;50.156;14.570;2022-12-04T15:00:54;25.13;;;11.02;;
75586;SDS011;64164;50.156;14.570;2022-12-04T15:03:20;24.48;;;9.95;;
75586;SDS011;64164;50.156;14.570;2022-12-04T15:05:46;23.60;;;10.00;;
75586;SDS011;64164;50.156;14.570;2022-12-04T15:08:11;22.98;;;10.10;;
75586;SDS011;64164;50.156;14.570;2022-12-04T15:10:37;21.38;;;9.95;;
75586;SDS011;64164;50.156;14.570;2022-12-04T15:13:29;24.42;;;10.20;;
75586;SDS011;64164;50.156;14.570;2022-12-04T15:15:54;23.20;;;11.52;;
75586;SDS011;64164;50.156;14.570;2022-12-04T15:18:19;26.58;;;11.80;;
75586;SDS011;64164;50.156;14.570;2022-12-04T15:23:13;28.13;;;13.88;;
75586;SDS011;64164;50.156;14.570;2022-12-04T15:25:42;23.80;;;12.13;;
75586;SDS011;64164;50.156;14.570;2022-12-04T15:28:10;28.13;;;12.55;;
75586;SDS011;64164;50.156;14.570;2022-12-04T15:30:36;23.80;;;11.60;;
75586;SDS011;64164;50.156;14.570;2022-12-04T15:33:03;25.15;;;11.90;;
75586;SDS011;64164;50.156;14.570;2022-12-04T15:35:30;26.02;;;11.25;;
75586;SDS011;64164;50.156;14.570;2022-12-04T15:37:55;22.73;;;9.98;;
75586;SDS011;64164;50.156;14.570;2022-12-04T15:40:23;24.52;;;11.82;;
75586;SDS011;64164;50.156;14.570;2022-12-04T15:42:49;27.73;;;12.07;;
75586;SDS011;64164;50.156;14.570;2022-12-04T15:52:33;25.50;;;11.18;;
75586;SDS011;64164;50.156;14.570;2022-12-04T15:54:59;25.05;;;10.57;;
75586;SDS011;64164;50.156;14.570;2022-12-04T15:57:29;22.42;;;10.75;;
75586;SDS011;64164;50.156;14.570;2022-12-04T15:59:54;26.85;;;12.20;;
75586;SDS011;64164;50.156;14.570;2022-12-04T16:02:29;23.55;;;10.93;;
75586;SDS011;64164;50.156;14.570;2022-12-04T16:04:54;27.85;;;10.90;;
75586;SDS011;64164;50.156;14.570;2022-12-04T16:07:27;26.92;;;12.38;;
75586;SDS011;64164;50.156;14.570;2022-12-04T16:09:54;23.13;;;11.20;;
75586;SDS011;64164;50.156;14.570;2022-12-04T16:12:22;27.40;;;12.30;;
75586;SDS011;64164;50.156;14.570;2022-12-04T16:14:50;21.63;;;10.70;;
75586;SDS011;64164;50.156;14.570;2022-12-04T16:17:15;32.13;;;14.02;;
75586;SDS011;64164;50.156;14.570;2022-12-04T16:19:41;26.58;;;11.38;;
75586;SDS011;64164;50.156;14.570;2022-12-04T16:22:11;25.45;;;11.35;;
75586;SDS011;64164;50.156;14.570;2022-12-04T16:24:37;24.85;;;12.63;;
75586;SDS011;64164;50.156;14.570;2022-12-04T16:27:04;24.48;;;11.77;;
75586;SDS011;64164;50.156;14.570;2022-12-04T16:29:33;24.13;;;10.48;;
75586;SDS011;64164;50.156;14.570;2022-12-04T16:31:58;21.77;;;9.60;;
75586;SDS011;64164;50.156;14.570;2022-12-04T16:34:24;22.17;;;11.45;;
75586;SDS011;64164;50.156;14.570;2022-12-04T16:36:49;21.20;;;9.87;;
75586;SDS011;64164;50.156;14.570;2022-12-04T16:39:15;20.70;;;10.37;;
75586;SDS011;64164;50.156;14.570;2022-12-04T16:41:40;18.90;;;9.30;;
75586;SDS011;64164;50.156;14.570;2022-12-04T16:44:08;23.70;;;11.07;;
75586;SDS011;64164;50.156;14.570;2022-12-04T16:46:35;20.90;;;9.05;;
75586;SDS011;64164;50.156;14.570;2022-12-04T16:49:00;23.00;;;10.33;;
75586;SDS011;64164;50.156;14.570;2022-12-04T16:51:26;20.87;;;9.87;;
75586;SDS011;64164;50.156;14.570;2022-12-04T16:53:51;20.17;;;10.18;;
75586;SDS011;64164;50.156;14.570;2022-12-04T16:56:17;19.73;;;9.35;;
75586;SDS011;64164;50.156;14.570;2022-12-04T16:58:43;21.30;;;9.90;;
75586;SDS011;64164;50.156;14.570;2022-12-04T17:01:15;26.10;;;11.77;;
75586;SDS011;64164;50.156;14.570;2022-12-04T17:03:42;15.18;;;7.85;;
75586;SDS011;64164;50.156;14.570;2022-12-04T17:06:07;19.50;;;8.97;;
75586;SDS011;64164;50.156;14.570;2022-12-04T17:08:32;19.63;;;9.67;;
75586;SDS011;64164;50.156;14.570;2022-12-04T17:10:57;19.67;;;9.27;;
75586;SDS011;64164;50.156;14.570;2022-12-04T17:13:22;21.83;;;9.97;;
75586;SDS011;64164;50.156;14.570;2022-12-04T17:15:48;18.17;;;8.63;;
75586;SDS011;64164;50.156;14.570;2022-12-04T17:18:13;22.73;;;9.50;;
75586;SDS011;64164;50.156;14.570;2022-12-04T17:20:41;20.30;;;9.70;;
75586;SDS011;64164;50.156;14.570;2022-12-04T17:23:07;26.55;;;11.55;;
75586;SDS011;64164;50.156;14.570;2022-12-04T17:25:33;17.20;;;7.82;;
75586;SDS011;64164;50.156;14.570;2022-12-04T17:27:58;18.23;;;8.83;;
75586;SDS011;64164;50.156;14.570;2022-12-04T17:30:23;25.10;;;11.40;;
75586;SDS011;64164;50.156;14.570;2022-12-04T17:32:48;21.13;;;9.60;;
75586;SDS011;64164;50.156;14.570;2022-12-04T17:35:14;23.60;;;9.00;;
75586;SDS011;64164;50.156;14.570;2022-12-04T17:37:39;21.43;;;9.23;;
75586;SDS011;64164;50.156;14.570;2022-12-04T17:40:05;18.90;;;9.70;;
75586;SDS011;64164;50.156;14.570;2022-12-04T17:42:30;21.27;;;9.00;;
75586;SDS011;64164;50.156;14.570;2022-12-04T17:44:56;18.60;;;9.35;;
75586;SDS011;64164;50.156;14.570;2022-12-04T17:47:21;20.23;;;8.40;;
75586;SDS011;64164;50.156;14.570;2022-12-04T17:49:46;21.87;;;9.07;;
75586;SDS011;64164;50.156;14.570;2022-12-04T17:52:11;17.40;;;8.90;;
75586;SDS011;64164;50.156;14.570;2022-12-04T17:54:36;19.07;;;9.63;;
75586;SDS011;64164;50.156;14.570;2022-12-04T17:57:02;18.20;;;8.40;;
75586;SDS011;64164;50.156;14.570;2022-12-04T17:59:27;17.43;;;7.93;;
75586;SDS011;64164;50.156;14.570;2022-12-04T18:01:52;15.48;;;8.27;;
75586;SDS011;64164;50.156;14.570;2022-12-04T18:04:18;18.50;;;8.83;;
75586;SDS011;64164;50.156;14.570;2022-12-04T18:06:43;19.50;;;8.15;;
75586;SDS011;64164;50.156;14.570;2022-12-04T18:09:09;17.45;;;8.65;;
75586;SDS011;64164;50.156;14.570;2022-12-04T18:11:36;24.30;;;10.95;;
75586;SDS011;64164;50.156;14.570;2022-12-04T18:14:02;18.38;;;8.73;;
75586;SDS011;64164;50.156;14.570;2022-12-04T18:16:29;23.05;;;9.52;;
75586;SDS011;64164;50.156;14.570;2022-12-04T18:18:59;17.40;;;8.27;;
75586;SDS011;64164;50.156;14.570;2022-12-04T18:21:24;21.17;;;9.40;;
75586;SDS011;64164;50.156;14.570;2022-12-04T18:23:50;23.42;;;9.65;;
75586;SDS011;64164;50.156;14.570;2022-12-04T18:26:19;19.45;;;10.52;;
75586;SDS011;64164;50.156;14.570;2022-12-04T18:28:45;18.27;;;8.57;;
75586;SDS011;64164;50.156;14.570;2022-12-04T18:31:10;23.52;;;11.00;;
75586;SDS011;64164;50.156;14.570;2022-12-04T18:33:37;22.10;;;10.77;;
75586;SDS011;64164;50.156;14.570;2022-12-04T18:36:03;26.85;;;12.02;;
75586;SDS011;64164;50.156;14.570;2022-12-04T18:38:28;30.50;;;13.13;;
75586;SDS011;64164;50.156;14.570;2022-12-04T18:41:07;22.85;;;10.90;;
75586;SDS011;64164;50.156;14.570;2022-12-04T18:43:33;21.73;;;9.52;;
75586;SDS011;64164;50.156;14.570;2022-12-04T18:45:59;26.65;;;12.88;;
75586;SDS011;64164;50.156;14.570;2022-12-04T18:48:25;27.33;;;11.35;;
75586;SDS011;64164;50.156;14.570;2022-12-04T18:50:50;27.93;;;12.13;;
75586;SDS011;64164;50.156;14.570;2022-12-04T18:53:15;26.67;;;12.17;;
75586;SDS011;64164;50.156;14.570;2022-12-04T18:55:42;28.48;;;11.45;;
75586;SDS011;64164;50.156;14.570;2022-12-04T18:58:07;28.23;;;12.13;;
75586;SDS011;64164;50.156;14.570;2022-12-04T19:00:33;23.43;;;11.50;;
75586;SDS011;64164;50.156;14.570;2022-12-04T19:02:58;21.43;;;10.53;;
75586;SDS011;64164;50.156;14.570;2022-12-04T19:05:23;25.17;;;11.97;;
75586;SDS011;64164;50.156;14.570;2022-12-04T19:07:48;25.57;;;11.97;;
75586;SDS011;64164;50.156;14.570;2022-12-04T19:10:14;26.58;;;10.40;;
75586;SDS011;64164;50.156;14.570;2022-12-04T19:12:39;26.92;;;10.95;;
75586;SDS011;64164;50.156;14.570;2022-12-04T19:15:05;22.17;;;10.33;;
75586;SDS011;64164;50.156;14.570;2022-12-04T19:17:30;24.38;;;10.43;;
75586;SDS011;64164;50.156;14.570;2022-12-04T19:19:55;23.30;;;10.87;;
75586;SDS011;64164;50.156;14.570;2022-12-04T19:22:20;21.77;;;11.05;;
75586;SDS011;64164;50.156;14.570;2022-12-04T19:24:46;29.53;;;12.27;;
75586;SDS011;64164;50.156;14.570;2022-12-04T19:27:11;25.20;;;11.03;;
75586;SDS011;64164;50.156;14.570;2022-12-04T19:29:39;25.20;;;11.13;;
75586;SDS011;64164;50.156;14.570;2022-12-04T19:32:04;24.58;;;12.60;;
75586;SDS011;64164;50.156;14.570;2022-12-04T19:34:30;25.65;;;11.60;;
75586;SDS011;64164;50.156;14.570;2022-12-04T19:36:55;26.07;;;11.90;;
75586;SDS011;64164;50.156;14.570;2022-12-04T19:39:20;21.00;;;10.10;;
75586;SDS011;64164;50.156;14.570;2022-12-04T19:41:45;31.23;;;12.50;;
75586;SDS011;64164;50.156;14.570;2022-12-04T19:44:11;23.70;;;11.98;;
75586;SDS011;64164;50.156;14.570;2022-12-04T19:46:37;24.75;;;12.98;;
75586;SDS011;64164;50.156;14.570;2022-12-04T19:49:02;30.08;;;13.95;;
75586;SDS011;64164;50.156;14.570;2022-12-04T19:51:30;32.90;;;15.18;;
75586;SDS011;64164;50.156;14.570;2022-12-04T19:53:57;26.52;;;12.45;;
75586;SDS011;64164;50.156;14.570;2022-12-04T19:56:24;25.13;;;13.73;;
75586;SDS011;64164;50.156;14.570;2022-12-04T19:58:50;28.23;;;13.00;;
75586;SDS011;64164;50.156;14.570;2022-12-04T20:01:16;33.08;;;14.18;;
75586;SDS011;64164;50.156;14.570;2022-12-04T20:03:42;40.50;;;17.95;;
75586;SDS011;64164;50.156;14.570;2022-12-04T20:06:08;30.23;;;15.07;;
75586;SDS011;64164;50.156;14.570;2022-12-04T20:08:34;33.92;;;14.18;;
75586;SDS011;64164;50.156;14.570;2022-12-04T20:11:01;24.33;;;11.93;;
75586;SDS011;64164;50.156;14.570;2022-12-04T20:13:26;28.65;;;12.35;;
75586;SDS011;64164;50.156;14.570;2022-12-04T20:15:52;25.30;;;11.30;;
75586;SDS011;64164;50.156;14.570;2022-12-04T20:18:17;21.60;;;10.90;;
75586;SDS011;64164;50.156;14.570;2022-12-04T20:20:42;24.80;;;10.47;;
75586;SDS011;64164;50.156;14.570;2022-12-04T20:23:09;26.58;;;11.73;;
75586;SDS011;64164;50.156;14.570;2022-12-04T20:25:34;26.00;;;11.60;;
75586;SDS011;64164;50.156;14.570;2022-12-04T20:28:00;26.40;;;12.52;;
75586;SDS011;64164;50.156;14.570;2022-12-04T20:30:25;23.57;;;10.93;;
75586;SDS011;64164;50.156;14.570;2022-12-04T20:32:51;22.40;;;11.50;;
75586;SDS011;64164;50.156;14.570;2022-12-04T20:35:16;24.63;;;11.63;;
75586;SDS011;64164;50.156;14.570;2022-12-04T20:37:41;24.70;;;11.87;;
75586;SDS011;64164;50.156;14.570;2022-12-04T20:40:07;23.70;;;12.03;;
75586;SDS011;64164;50.156;14.570;2022-12-04T20:42:33;26.70;;;12.20;;
75586;SDS011;64164;50.156;14.570;2022-12-04T20:44:58;25.95;;;11.65;;
75586;SDS011;64164;50.156;14.570;2022-12-04T20:47:23;22.00;;;10.93;;
75586;SDS011;64164;50.156;14.570;2022-12-04T20:49:49;23.60;;;10.40;;
75586;SDS011;64164;50.156;14.570;2022-12-04T20:52:15;20.03;;;11.73;;
75586;SDS011;64164;50.156;14.570;2022-12-04T20:54:40;21.73;;;10.80;;
75586;SDS011;64164;50.156;14.570;2022-12-04T20:57:05;22.17;;;11.47;;
75586;SDS011;64164;50.156;14.570;2022-12-04T20:59:30;18.13;;;10.73;;
75586;SDS011;64164;50.156;14.570;2022-12-04T21:01:55;18.90;;;9.50;;
75586;SDS011;64164;50.156;14.570;2022-12-04T21:04:21;19.93;;;10.10;;
75586;SDS011;64164;50.156;14.570;2022-12-04T21:06:46;18.38;;;9.75;;
75586;SDS011;64164;50.156;14.570;2022-12-04T21:09:16;15.90;;;8.93;;
75586;SDS011;64164;50.156;14.570;2022-12-04T21:11:49;21.63;;;9.13;;
75586;SDS011;64164;50.156;14.570;2022-12-04T21:14:18;17.02;;;9.23;;
75586;SDS011;64164;50.156;14.570;2022-12-04T21:17:03;18.52;;;9.18;;
75586;SDS011;64164;50.156;14.570;2022-12-04T21:19:30;18.35;;;9.90;;
75586;SDS011;64164;50.156;14.570;2022-12-04T21:21:56;19.90;;;9.55;;
75586;SDS011;64164;50.156;14.570;2022-12-04T21:24:21;21.93;;;9.80;;
75586;SDS011;64164;50.156;14.570;2022-12-04T21:26:47;17.10;;;8.73;;
75586;SDS011;64164;50.156;14.570;2022-12-04T21:29:12;22.97;;;10.47;;
75586;SDS011;64164;50.156;14.570;2022-12-04T21:31:38;21.75;;;9.93;;
